sensor_id;sensor_type;location;lat;lon;timestamp;temperature;humidity
68011;DHT22;54794;48.348;7.878;2024-03-23T00:53:52;16.90;49.40
68011;DHT22;54794;48.348;7.878;2024-03-23T00:56:18;17.00;49.30
68011;DHT22;54794;48.348;7.878;2024-03-23T00:58:43;17.40;49.50
68011;DHT22;54794;48.348;7.878;2024-03-23T01:01:09;17.00;49.30
68011;DHT22;54794;48.348;7.878;2024-03-23T01:03:35;17.60;49.80
68011;DHT22;54794;48.348;7.878;2024-03-23T01:06:01;17.60;49.40
68011;DHT22;54794;48.348;7.878;2024-03-23T01:08:28;17.10;49.20
68011;DHT22;54794;48.348;7.878;2024-03-23T01:10:56;17.40;49.20
68011;DHT22;54794;48.348;7.878;2024-03-23T01:13:26;17.20;49.10
68011;DHT22;54794;48.348;7.878;2024-03-23T01:15:53;17.40;49.20
68011;DHT22;54794;48.348;7.878;2024-03-23T01:18:20;17.70;49.40
68011;DHT22;54794;48.348;7.878;2024-03-23T01:20:46;17.70;49.40
68011;DHT22;54794;48.348;7.878;2024-03-23T01:23:12;17.30;49.00
68011;DHT22;54794;48.348;7.878;2024-03-23T01:25:38;17.70;49.20
68011;DHT22;54794;48.348;7.878;2024-03-23T01:28:05;17.40;49.00
68011;DHT22;54794;48.348;7.878;2024-03-23T01:30:34;17.30;48.90
68011;DHT22;54794;48.348;7.878;2024-03-23T01:33:01;17.30;48.90
68011;DHT22;54794;48.348;7.878;2024-03-23T01:35:28;17.90;49.20
68011;DHT22;54794;48.348;7.878;2024-03-23T01:37:54;17.40;48.90
68011;DHT22;54794;48.348;7.878;2024-03-23T01:40:20;17.30;48.80
68011;DHT22;54794;48.348;7.878;2024-03-23T01:42:57;17.70;49.10
68011;DHT22;54794;48.348;7.878;2024-03-23T01:45:24;17.30;49.10
68011;DHT22;54794;48.348;7.878;2024-03-23T01:47:51;17.30;48.90
68011;DHT22;54794;48.348;7.878;2024-03-23T01:50:18;17.70;49.40
68011;DHT22;54794;48.348;7.878;2024-03-23T01:52:46;17.40;49.00
68011;DHT22;54794;48.348;7.878;2024-03-23T01:55:12;17.30;49.10
68011;DHT22;54794;48.348;7.878;2024-03-23T01:57:38;17.70;49.10
68011;DHT22;54794;48.348;7.878;2024-03-23T02:00:04;17.80;49.20
68011;DHT22;54794;48.348;7.878;2024-03-23T02:02:31;17.30;48.90
68011;DHT22;54794;48.348;7.878;2024-03-23T02:04:57;17.50;49.10
68011;DHT22;54794;48.348;7.878;2024-03-23T02:07:24;17.60;49.10
68011;DHT22;54794;48.348;7.878;2024-03-23T02:09:50;17.30;48.80
68011;DHT22;54794;48.348;7.878;2024-03-23T02:12:17;17.80;49.20
68011;DHT22;54794;48.348;7.878;2024-03-23T02:14:43;17.40;49.00
68011;DHT22;54794;48.348;7.878;2024-03-23T02:17:09;17.80;49.20
68011;DHT22;54794;48.348;7.878;2024-03-23T02:19:35;17.30;48.90
68011;DHT22;54794;48.348;7.878;2024-03-23T02:22:01;17.40;49.00
68011;DHT22;54794;48.348;7.878;2024-03-23T02:24:26;17.40;49.00
68011;DHT22;54794;48.348;7.878;2024-03-23T02:26:54;17.50;49.00
68011;DHT22;54794;48.348;7.878;2024-03-23T02:29:20;17.50;49.00
68011;DHT22;54794;48.348;7.878;2024-03-23T02:31:46;17.30;49.00
68011;DHT22;54794;48.348;7.878;2024-03-23T02:34:12;17.50;49.10
68011;DHT22;54794;48.348;7.878;2024-03-23T02:36:37;17.30;49.10
68011;DHT22;54794;48.348;7.878;2024-03-23T02:39:03;17.30;49.10
68011;DHT22;54794;48.348;7.878;2024-03-23T02:41:29;16.90;48.90
68011;DHT22;54794;48.348;7.878;2024-03-23T02:43:55;17.10;49.50
68011;DHT22;54794;48.348;7.878;2024-03-23T02:46:21;17.10;49.00
68011;DHT22;54794;48.348;7.878;2024-03-23T02:48:48;17.30;49.20
68011;DHT22;54794;48.348;7.878;2024-03-23T02:51:14;17.20;49.20
68011;DHT22;54794;48.348;7.878;2024-03-23T02:53:40;17.10;49.10
68011;DHT22;54794;48.348;7.878;2024-03-23T02:56:06;16.80;49.00
68011;DHT22;54794;48.348;7.878;2024-03-23T02:58:32;17.20;49.20
68011;DHT22;54794;48.348;7.878;2024-03-23T03:00:58;16.90;49.10
68011;DHT22;54794;48.348;7.878;2024-03-23T03:03:24;16.80;49.10
68011;DHT22;54794;48.348;7.878;2024-03-23T03:05:56;17.10;49.30
68011;DHT22;54794;48.348;7.878;2024-03-23T03:08:22;16.50;49.00
68011;DHT22;54794;48.348;7.878;2024-03-23T03:10:48;16.50;49.00
68011;DHT22;54794;48.348;7.878;2024-03-23T03:13:13;16.40;49.60
68011;DHT22;54794;48.348;7.878;2024-03-23T03:15:40;16.60;49.40
68011;DHT22;54794;48.348;7.878;2024-03-23T03:18:06;16.30;49.30
68011;DHT22;54794;48.348;7.878;2024-03-23T03:20:32;16.70;49.70
68011;DHT22;54794;48.348;7.878;2024-03-23T03:22:58;16.50;49.50
68011;DHT22;54794;48.348;7.878;2024-03-23T03:25:24;16.20;50.30
68011;DHT22;54794;48.348;7.878;2024-03-23T03:27:50;16.30;50.80
68011;DHT22;54794;48.348;7.878;2024-03-23T03:30:16;16.30;50.20
68011;DHT22;54794;48.348;7.878;2024-03-23T03:32:42;16.30;49.80
68011;DHT22;54794;48.348;7.878;2024-03-23T03:35:07;16.70;50.00
68011;DHT22;54794;48.348;7.878;2024-03-23T03:37:34;16.30;49.70
68011;DHT22;54794;48.348;7.878;2024-03-23T03:40:00;16.40;49.80
68011;DHT22;54794;48.348;7.878;2024-03-23T03:42:25;16.30;49.70
68011;DHT22;54794;48.348;7.878;2024-03-23T03:44:51;16.40;50.00
68011;DHT22;54794;48.348;7.878;2024-03-23T03:47:19;16.80;50.30
68011;DHT22;54794;48.348;7.878;2024-03-23T03:49:45;16.70;50.40
68011;DHT22;54794;48.348;7.878;2024-03-23T03:52:10;16.40;50.00
68011;DHT22;54794;48.348;7.878;2024-03-23T03:54:36;16.70;50.10
68011;DHT22;54794;48.348;7.878;2024-03-23T03:57:02;16.80;50.10
68011;DHT22;54794;48.348;7.878;2024-03-23T03:59:29;16.30;49.80
68011;DHT22;54794;48.348;7.878;2024-03-23T04:01:55;16.70;49.90
68011;DHT22;54794;48.348;7.878;2024-03-23T04:04:20;16.50;49.90
68011;DHT22;54794;48.348;7.878;2024-03-23T04:06:47;16.40;49.80
68011;DHT22;54794;48.348;7.878;2024-03-23T04:09:13;16.70;50.30
68011;DHT22;54794;48.348;7.878;2024-03-23T04:11:40;16.30;50.00
68011;DHT22;54794;48.348;7.878;2024-03-23T04:14:06;16.30;50.80
68011;DHT22;54794;48.348;7.878;2024-03-23T04:16:35;16.30;50.80
68011;DHT22;54794;48.348;7.878;2024-03-23T04:19:01;16.20;51.10
68011;DHT22;54794;48.348;7.878;2024-03-23T04:21:27;16.20;50.50
68011;DHT22;54794;48.348;7.878;2024-03-23T04:23:53;16.60;50.70
68011;DHT22;54794;48.348;7.878;2024-03-23T04:26:19;16.70;50.90
68011;DHT22;54794;48.348;7.878;2024-03-23T04:28:44;16.10;50.70
68011;DHT22;54794;48.348;7.878;2024-03-23T04:31:10;16.60;51.00
68011;DHT22;54794;48.348;7.878;2024-03-23T04:33:36;16.50;51.10
68011;DHT22;54794;48.348;7.878;2024-03-23T04:36:02;16.00;51.00
68011;DHT22;54794;48.348;7.878;2024-03-23T04:38:28;15.90;50.90
68011;DHT22;54794;48.348;7.878;2024-03-23T04:40:57;16.40;51.40
68011;DHT22;54794;48.348;7.878;2024-03-23T04:43:25;15.80;51.00
68011;DHT22;54794;48.348;7.878;2024-03-23T04:45:51;16.40;51.30
68011;DHT22;54794;48.348;7.878;2024-03-23T04:48:19;15.70;50.50
68011;DHT22;54794;48.348;7.878;2024-03-23T04:50:46;16.20;51.30
68011;DHT22;54794;48.348;7.878;2024-03-23T04:53:12;15.70;51.20
68011;DHT22;54794;48.348;7.878;2024-03-23T04:55:38;15.90;51.50
68011;DHT22;54794;48.348;7.878;2024-03-23T04:58:03;16.20;51.70
68011;DHT22;54794;48.348;7.878;2024-03-23T05:00:29;15.60;51.50
68011;DHT22;54794;48.348;7.878;2024-03-23T05:02:55;15.60;51.50
68011;DHT22;54794;48.348;7.878;2024-03-23T05:05:21;16.10;51.80
68011;DHT22;54794;48.348;7.878;2024-03-23T05:07:47;15.50;51.50
68011;DHT22;54794;48.348;7.878;2024-03-23T05:10:12;15.80;51.80
68011;DHT22;54794;48.348;7.878;2024-03-23T05:12:39;16.10;52.00
68011;DHT22;54794;48.348;7.878;2024-03-23T05:15:05;15.70;51.80
68011;DHT22;54794;48.348;7.878;2024-03-23T05:17:33;15.70;51.80
68011;DHT22;54794;48.348;7.878;2024-03-23T05:19:59;15.60;51.80
68011;DHT22;54794;48.348;7.878;2024-03-23T05:22:25;15.70;52.10
68011;DHT22;54794;48.348;7.878;2024-03-23T05:24:53;15.40;51.90
68011;DHT22;54794;48.348;7.878;2024-03-23T05:27:19;15.60;52.20
68011;DHT22;54794;48.348;7.878;2024-03-23T05:29:45;15.60;52.00
68011;DHT22;54794;48.348;7.878;2024-03-23T05:32:10;16.00;52.00
68011;DHT22;54794;48.348;7.878;2024-03-23T05:34:36;15.60;52.00
68011;DHT22;54794;48.348;7.878;2024-03-23T05:37:02;15.50;52.00
68011;DHT22;54794;48.348;7.878;2024-03-23T05:39:28;15.90;51.80
68011;DHT22;54794;48.348;7.878;2024-03-23T05:41:54;15.70;52.10
68011;DHT22;54794;48.348;7.878;2024-03-23T05:44:20;15.90;51.90
68011;DHT22;54794;48.348;7.878;2024-03-23T05:46:45;15.50;51.60
68011;DHT22;54794;48.348;7.878;2024-03-23T05:49:15;15.40;51.50
68011;DHT22;54794;48.348;7.878;2024-03-23T05:51:42;15.70;51.50
68011;DHT22;54794;48.348;7.878;2024-03-23T05:54:08;15.30;51.30
68011;DHT22;54794;48.348;7.878;2024-03-23T05:56:34;15.60;51.70
68011;DHT22;54794;48.348;7.878;2024-03-23T05:59:00;15.40;51.40
68011;DHT22;54794;48.348;7.878;2024-03-23T06:01:26;15.00;51.30
68011;DHT22;54794;48.348;7.878;2024-03-23T06:03:54;15.00;51.40
68011;DHT22;54794;48.348;7.878;2024-03-23T06:06:20;14.90;51.40
68011;DHT22;54794;48.348;7.878;2024-03-23T06:08:46;15.10;51.70
68011;DHT22;54794;48.348;7.878;2024-03-23T06:11:11;14.70;51.10
68011;DHT22;54794;48.348;7.878;2024-03-23T06:13:37;15.30;51.70
68011;DHT22;54794;48.348;7.878;2024-03-23T06:16:03;14.70;51.50
68011;DHT22;54794;48.348;7.878;2024-03-23T06:18:29;14.70;51.50
68011;DHT22;54794;48.348;7.878;2024-03-23T06:20:55;15.10;51.90
68011;DHT22;54794;48.348;7.878;2024-03-23T06:23:21;14.80;51.70
68011;DHT22;54794;48.348;7.878;2024-03-23T06:25:47;14.60;51.60
68011;DHT22;54794;48.348;7.878;2024-03-23T06:28:13;14.70;51.80
68011;DHT22;54794;48.348;7.878;2024-03-23T06:30:39;15.10;52.10
68011;DHT22;54794;48.348;7.878;2024-03-23T06:33:05;14.80;52.00
68011;DHT22;54794;48.348;7.878;2024-03-23T06:35:31;14.80;52.00
68011;DHT22;54794;48.348;7.878;2024-03-23T06:37:57;14.50;51.70
68011;DHT22;54794;48.348;7.878;2024-03-23T06:40:23;14.90;52.10
68011;DHT22;54794;48.348;7.878;2024-03-23T06:42:49;14.50;51.70
68011;DHT22;54794;48.348;7.878;2024-03-23T06:45:16;14.70;51.80
68011;DHT22;54794;48.348;7.878;2024-03-23T06:47:42;14.40;51.70
68011;DHT22;54794;48.348;7.878;2024-03-23T06:50:08;15.00;52.20
68011;DHT22;54794;48.348;7.878;2024-03-23T06:52:35;14.40;51.90
68011;DHT22;54794;48.348;7.878;2024-03-23T06:55:01;14.70;52.30
68011;DHT22;54794;48.348;7.878;2024-03-23T06:57:30;14.40;51.80
68011;DHT22;54794;48.348;7.878;2024-03-23T06:59:55;14.80;51.90
68011;DHT22;54794;48.348;7.878;2024-03-23T07:02:21;14.70;52.40
68011;DHT22;54794;48.348;7.878;2024-03-23T07:04:47;14.60;51.90
68011;DHT22;54794;48.348;7.878;2024-03-23T07:07:13;14.20;51.90
68011;DHT22;54794;48.348;7.878;2024-03-23T07:09:38;14.00;51.90
68011;DHT22;54794;48.348;7.878;2024-03-23T07:12:04;14.10;51.90
68011;DHT22;54794;48.348;7.878;2024-03-23T07:14:31;14.00;52.00
68011;DHT22;54794;48.348;7.878;2024-03-23T07:16:56;14.40;52.10
68011;DHT22;54794;48.348;7.878;2024-03-23T07:19:22;14.40;52.30
68011;DHT22;54794;48.348;7.878;2024-03-23T07:21:50;13.90;52.00
68011;DHT22;54794;48.348;7.878;2024-03-23T07:24:16;13.80;52.00
68011;DHT22;54794;48.348;7.878;2024-03-23T07:26:41;13.80;52.30
68011;DHT22;54794;48.348;7.878;2024-03-23T07:29:07;14.30;52.50
68011;DHT22;54794;48.348;7.878;2024-03-23T07:31:33;13.70;52.10
68011;DHT22;54794;48.348;7.878;2024-03-23T07:33:59;13.70;52.00
68011;DHT22;54794;48.348;7.878;2024-03-23T07:36:25;13.70;52.00
68011;DHT22;54794;48.348;7.878;2024-03-23T07:38:51;13.70;52.00
68011;DHT22;54794;48.348;7.878;2024-03-23T07:41:20;13.60;52.10
68011;DHT22;54794;48.348;7.878;2024-03-23T07:43:46;13.60;51.90
68011;DHT22;54794;48.348;7.878;2024-03-23T07:46:14;13.60;52.00
68011;DHT22;54794;48.348;7.878;2024-03-23T07:48:40;13.60;52.40
68011;DHT22;54794;48.348;7.878;2024-03-23T07:51:11;14.00;52.60
68011;DHT22;54794;48.348;7.878;2024-03-23T07:53:42;13.90;52.80
68011;DHT22;54794;48.348;7.878;2024-03-23T07:56:09;13.70;52.60
68011;DHT22;54794;48.348;7.878;2024-03-23T07:58:35;13.80;52.80
68011;DHT22;54794;48.348;7.878;2024-03-23T08:01:05;13.80;53.10
68011;DHT22;54794;48.348;7.878;2024-03-23T08:03:33;13.90;52.60
68011;DHT22;54794;48.348;7.878;2024-03-23T08:06:10;14.30;53.10
68011;DHT22;54794;48.348;7.878;2024-03-23T08:08:36;14.00;52.90
68011;DHT22;54794;48.348;7.878;2024-03-23T08:11:02;14.10;52.60
68011;DHT22;54794;48.348;7.878;2024-03-23T08:13:29;14.10;52.40
68011;DHT22;54794;48.348;7.878;2024-03-23T08:16:02;14.50;52.60
68011;DHT22;54794;48.348;7.878;2024-03-23T08:18:29;14.10;52.20
68011;DHT22;54794;48.348;7.878;2024-03-23T08:20:55;14.10;52.00
68011;DHT22;54794;48.348;7.878;2024-03-23T08:23:24;14.10;51.90
68011;DHT22;54794;48.348;7.878;2024-03-23T08:25:57;14.00;51.90
68011;DHT22;54794;48.348;7.878;2024-03-23T08:28:26;14.00;51.70
68011;DHT22;54794;48.348;7.878;2024-03-23T08:30:53;13.90;51.60
68011;DHT22;54794;48.348;7.878;2024-03-23T08:33:20;13.90;51.70
68011;DHT22;54794;48.348;7.878;2024-03-23T08:35:59;13.80;51.70
68011;DHT22;54794;48.348;7.878;2024-03-23T08:38:26;13.80;51.90
68011;DHT22;54794;48.348;7.878;2024-03-23T08:41:11;14.00;51.80
68011;DHT22;54794;48.348;7.878;2024-03-23T08:43:39;13.90;51.70
68011;DHT22;54794;48.348;7.878;2024-03-23T08:46:06;14.10;52.10
68011;DHT22;54794;48.348;7.878;2024-03-23T08:48:34;13.90;52.20
68011;DHT22;54794;48.348;7.878;2024-03-23T08:51:06;13.90;52.40
68011;DHT22;54794;48.348;7.878;2024-03-23T08:53:34;14.10;52.60
68011;DHT22;54794;48.348;7.878;2024-03-23T08:56:01;14.40;52.50
68011;DHT22;54794;48.348;7.878;2024-03-23T08:58:28;14.20;52.30
68011;DHT22;54794;48.348;7.878;2024-03-23T09:00:55;14.40;52.20
68011;DHT22;54794;48.348;7.878;2024-03-23T09:03:22;14.50;52.10
68011;DHT22;54794;48.348;7.878;2024-03-23T09:05:51;14.50;51.70
68011;DHT22;54794;48.348;7.878;2024-03-23T09:08:18;14.90;51.80
68011;DHT22;54794;48.348;7.878;2024-03-23T09:10:44;14.50;51.60
68011;DHT22;54794;48.348;7.878;2024-03-23T09:13:10;14.50;51.50
68011;DHT22;54794;48.348;7.878;2024-03-23T09:15:36;14.50;51.40
68011;DHT22;54794;48.348;7.878;2024-03-23T09:18:03;14.50;51.30
68011;DHT22;54794;48.348;7.878;2024-03-23T09:20:32;14.50;51.20
68011;DHT22;54794;48.348;7.878;2024-03-23T09:22:58;14.50;51.30
68011;DHT22;54794;48.348;7.878;2024-03-23T09:25:24;14.90;51.50
68011;DHT22;54794;48.348;7.878;2024-03-23T09:27:50;14.60;51.40
68011;DHT22;54794;48.348;7.878;2024-03-23T09:30:16;14.60;51.50
68011;DHT22;54794;48.348;7.878;2024-03-23T09:32:45;14.70;51.30
68011;DHT22;54794;48.348;7.878;2024-03-23T09:35:11;14.80;52.10
68011;DHT22;54794;48.348;7.878;2024-03-23T09:37:40;14.80;51.10
68011;DHT22;54794;48.348;7.878;2024-03-23T09:40:09;15.40;51.50
68011;DHT22;54794;48.348;7.878;2024-03-23T09:42:35;15.00;51.10
68011;DHT22;54794;48.348;7.878;2024-03-23T09:45:01;15.10;51.20
68011;DHT22;54794;48.348;7.878;2024-03-23T09:47:28;15.10;50.90
68011;DHT22;54794;48.348;7.878;2024-03-23T09:49:54;15.10;50.90
68011;DHT22;54794;48.348;7.878;2024-03-23T09:52:20;15.20;51.00
68011;DHT22;54794;48.348;7.878;2024-03-23T09:54:46;15.30;50.50
68011;DHT22;54794;48.348;7.878;2024-03-23T09:57:11;15.80;49.90
68011;DHT22;54794;48.348;7.878;2024-03-23T09:59:37;15.20;49.30
68011;DHT22;54794;48.348;7.878;2024-03-23T10:02:03;15.10;50.40
68011;DHT22;54794;48.348;7.878;2024-03-23T10:04:38;15.00;49.70
68011;DHT22;54794;48.348;7.878;2024-03-23T10:07:12;14.90;49.90
68011;DHT22;54794;48.348;7.878;2024-03-23T10:09:42;14.80;49.10
68011;DHT22;54794;48.348;7.878;2024-03-23T10:12:09;14.70;49.40
68011;DHT22;54794;48.348;7.878;2024-03-23T10:14:36;14.60;49.30
68011;DHT22;54794;48.348;7.878;2024-03-23T10:17:21;14.50;49.50
68011;DHT22;54794;48.348;7.878;2024-03-23T10:19:51;14.40;49.30
68011;DHT22;54794;48.348;7.878;2024-03-23T10:22:21;14.30;49.70
68011;DHT22;54794;48.348;7.878;2024-03-23T10:24:48;14.10;49.50
68011;DHT22;54794;48.348;7.878;2024-03-23T10:27:15;13.80;49.50
68011;DHT22;54794;48.348;7.878;2024-03-23T10:29:43;13.60;49.50
68011;DHT22;54794;48.348;7.878;2024-03-23T10:32:10;13.40;49.80
68011;DHT22;54794;48.348;7.878;2024-03-23T10:34:37;13.10;49.90
68011;DHT22;54794;48.348;7.878;2024-03-23T10:37:03;12.90;50.20
68011;DHT22;54794;48.348;7.878;2024-03-23T10:39:32;12.60;50.20
68011;DHT22;54794;48.348;7.878;2024-03-23T10:42:02;12.50;50.50
68011;DHT22;54794;48.348;7.878;2024-03-23T10:44:29;12.40;50.80
68011;DHT22;54794;48.348;7.878;2024-03-23T10:47:00;12.30;51.20
68011;DHT22;54794;48.348;7.878;2024-03-23T10:49:27;12.30;51.30
68011;DHT22;54794;48.348;7.878;2024-03-23T10:52:04;12.20;51.70
68011;DHT22;54794;48.348;7.878;2024-03-23T10:54:31;12.30;51.80
68011;DHT22;54794;48.348;7.878;2024-03-23T10:59:45;12.30;52.00
68011;DHT22;54794;48.348;7.878;2024-03-23T11:02:18;12.40;52.10
68011;DHT22;54794;48.348;7.878;2024-03-23T11:04:45;12.40;52.20
68011;DHT22;54794;48.348;7.878;2024-03-23T11:09:55;12.50;52.30
68011;DHT22;54794;48.348;7.878;2024-03-23T11:17:29;12.50;52.40
68011;DHT22;54794;48.348;7.878;2024-03-23T11:19:58;13.00;52.50
68011;DHT22;54794;48.348;7.878;2024-03-23T11:25:13;12.60;52.40
68011;DHT22;54794;48.348;7.878;2024-03-23T11:27:39;12.60;52.70
68011;DHT22;54794;48.348;7.878;2024-03-23T11:30:09;12.60;53.30
68011;DHT22;54794;48.348;7.878;2024-03-23T11:32:39;12.70;53.10
68011;DHT22;54794;48.348;7.878;2024-03-23T11:35:05;12.70;53.70
68011;DHT22;54794;48.348;7.878;2024-03-23T11:37:32;12.80;53.30
68011;DHT22;54794;48.348;7.878;2024-03-23T11:39:57;12.80;53.30
68011;DHT22;54794;48.348;7.878;2024-03-23T11:42:23;13.20;53.60
68011;DHT22;54794;48.348;7.878;2024-03-23T11:44:49;12.90;53.70
68011;DHT22;54794;48.348;7.878;2024-03-23T11:47:15;13.00;54.00
68011;DHT22;54794;48.348;7.878;2024-03-23T11:49:40;13.30;54.20
68011;DHT22;54794;48.348;7.878;2024-03-23T11:52:07;13.40;54.10
68011;DHT22;54794;48.348;7.878;2024-03-23T11:54:35;13.30;53.60
68011;DHT22;54794;48.348;7.878;2024-03-23T11:57:02;13.40;53.60
68011;DHT22;54794;48.348;7.878;2024-03-23T11:59:30;13.50;53.70
68011;DHT22;54794;48.348;7.878;2024-03-23T12:01:57;13.50;53.30
68011;DHT22;54794;48.348;7.878;2024-03-23T12:04:29;13.50;52.90
68011;DHT22;54794;48.348;7.878;2024-03-23T12:07:14;13.60;53.10
68011;DHT22;54794;48.348;7.878;2024-03-23T12:09:44;13.60;54.20
68011;DHT22;54794;48.348;7.878;2024-03-23T12:12:14;14.20;53.70
68011;DHT22;54794;48.348;7.878;2024-03-23T12:14:42;13.80;54.10
68011;DHT22;54794;48.348;7.878;2024-03-23T12:17:12;13.90;53.50
68011;DHT22;54794;48.348;7.878;2024-03-23T12:19:39;14.00;51.70
68011;DHT22;54794;48.348;7.878;2024-03-23T12:22:10;14.20;51.20
68011;DHT22;54794;48.348;7.878;2024-03-23T12:24:36;14.10;51.00
68011;DHT22;54794;48.348;7.878;2024-03-23T12:27:05;14.10;51.30
68011;DHT22;54794;48.348;7.878;2024-03-23T12:29:31;14.10;51.30
68011;DHT22;54794;48.348;7.878;2024-03-23T12:32:00;14.60;51.40
68011;DHT22;54794;48.348;7.878;2024-03-23T12:34:27;14.10;51.00
68011;DHT22;54794;48.348;7.878;2024-03-23T12:36:54;14.50;51.40
68011;DHT22;54794;48.348;7.878;2024-03-23T12:39:20;14.10;50.10
68011;DHT22;54794;48.348;7.878;2024-03-23T12:41:49;14.30;50.50
68011;DHT22;54794;48.348;7.878;2024-03-23T12:44:15;14.00;50.00
68011;DHT22;54794;48.348;7.878;2024-03-23T12:46:41;14.00;50.60
68011;DHT22;54794;48.348;7.878;2024-03-23T12:49:07;14.00;51.10
68011;DHT22;54794;48.348;7.878;2024-03-23T12:51:33;14.00;50.10
68011;DHT22;54794;48.348;7.878;2024-03-23T12:53:59;14.20;50.70
68011;DHT22;54794;48.348;7.878;2024-03-23T12:56:25;14.40;49.60
68011;DHT22;54794;48.348;7.878;2024-03-23T12:58:54;14.70;50.80
68011;DHT22;54794;48.348;7.878;2024-03-23T13:01:23;14.70;50.10
68011;DHT22;54794;48.348;7.878;2024-03-23T13:03:52;15.20;50.10
68011;DHT22;54794;48.348;7.878;2024-03-23T13:06:18;15.00;48.50
68011;DHT22;54794;48.348;7.878;2024-03-23T13:08:44;15.30;50.00
68011;DHT22;54794;48.348;7.878;2024-03-23T13:11:11;15.20;50.60
68011;DHT22;54794;48.348;7.878;2024-03-23T13:13:38;15.40;50.40
68011;DHT22;54794;48.348;7.878;2024-03-23T13:16:04;15.60;50.30
68011;DHT22;54794;48.348;7.878;2024-03-23T13:18:31;15.70;49.50
68011;DHT22;54794;48.348;7.878;2024-03-23T13:20:57;15.60;49.10
68011;DHT22;54794;48.348;7.878;2024-03-23T13:23:24;16.50;49.50
68011;DHT22;54794;48.348;7.878;2024-03-23T13:25:51;16.00;47.70
68011;DHT22;54794;48.348;7.878;2024-03-23T13:28:21;16.10;48.60
68011;DHT22;54794;48.348;7.878;2024-03-23T13:30:54;16.10;47.80
68011;DHT22;54794;48.348;7.878;2024-03-23T13:33:21;16.10;47.00
68011;DHT22;54794;48.348;7.878;2024-03-23T13:35:54;16.50;45.00
68011;DHT22;54794;48.348;7.878;2024-03-23T13:38:22;15.80;46.40
68011;DHT22;54794;48.348;7.878;2024-03-23T13:40:55;15.80;47.40
68011;DHT22;54794;48.348;7.878;2024-03-23T13:43:22;15.60;47.60
68011;DHT22;54794;48.348;7.878;2024-03-23T13:45:49;15.50;47.90
68011;DHT22;54794;48.348;7.878;2024-03-23T13:48:19;15.60;48.00
68011;DHT22;54794;48.348;7.878;2024-03-23T13:50:46;15.10;47.90
68011;DHT22;54794;48.348;7.878;2024-03-23T13:53:14;15.30;48.10
68011;DHT22;54794;48.348;7.878;2024-03-23T13:55:46;15.00;48.60
68011;DHT22;54794;48.348;7.878;2024-03-23T13:58:15;14.90;48.60
68011;DHT22;54794;48.348;7.878;2024-03-23T14:00:42;14.90;48.80
68011;DHT22;54794;48.348;7.878;2024-03-23T14:03:11;15.10;48.10
68011;DHT22;54794;48.348;7.878;2024-03-23T14:05:38;14.80;47.20
68011;DHT22;54794;48.348;7.878;2024-03-23T14:08:07;14.80;48.20
68011;DHT22;54794;48.348;7.878;2024-03-23T14:10:34;14.70;48.30
68011;DHT22;54794;48.348;7.878;2024-03-23T14:13:01;14.60;48.30
68011;DHT22;54794;48.348;7.878;2024-03-23T14:15:28;14.60;48.40
68011;DHT22;54794;48.348;7.878;2024-03-23T14:17:56;14.60;48.50
68011;DHT22;54794;48.348;7.878;2024-03-23T14:20:22;14.50;48.30
68011;DHT22;54794;48.348;7.878;2024-03-23T14:22:48;14.40;48.10
68011;DHT22;54794;48.348;7.878;2024-03-23T14:25:14;14.40;48.20
68011;DHT22;54794;48.348;7.878;2024-03-23T14:27:40;14.20;47.90
68011;DHT22;54794;48.348;7.878;2024-03-23T14:30:06;14.10;48.30
68011;DHT22;54794;48.348;7.878;2024-03-23T14:32:32;14.00;48.60
68011;DHT22;54794;48.348;7.878;2024-03-23T14:35:06;14.00;48.90
68011;DHT22;54794;48.348;7.878;2024-03-23T14:37:39;13.90;49.00
68011;DHT22;54794;48.348;7.878;2024-03-23T14:40:07;14.00;49.20
68011;DHT22;54794;48.348;7.878;2024-03-23T14:42:33;14.10;49.60
68011;DHT22;54794;48.348;7.878;2024-03-23T14:44:59;14.50;49.60
68011;DHT22;54794;48.348;7.878;2024-03-23T14:47:25;14.30;49.10
68011;DHT22;54794;48.348;7.878;2024-03-23T14:49:51;14.40;49.30
68011;DHT22;54794;48.348;7.878;2024-03-23T14:52:17;14.40;48.20
68011;DHT22;54794;48.348;7.878;2024-03-23T14:54:44;14.40;48.50
68011;DHT22;54794;48.348;7.878;2024-03-23T14:57:10;14.40;48.00
68011;DHT22;54794;48.348;7.878;2024-03-23T14:59:36;14.40;48.20
68011;DHT22;54794;48.348;7.878;2024-03-23T15:02:04;14.30;48.00
68011;DHT22;54794;48.348;7.878;2024-03-23T15:04:30;14.20;48.20
68011;DHT22;54794;48.348;7.878;2024-03-23T15:06:56;14.50;48.20
68011;DHT22;54794;48.348;7.878;2024-03-23T15:09:21;14.40;48.20
68011;DHT22;54794;48.348;7.878;2024-03-23T15:11:47;13.90;48.10
68011;DHT22;54794;48.348;7.878;2024-03-23T15:14:14;13.70;48.10
68011;DHT22;54794;48.348;7.878;2024-03-23T15:16:40;13.50;48.10
68011;DHT22;54794;48.348;7.878;2024-03-23T15:19:07;13.30;48.20
68011;DHT22;54794;48.348;7.878;2024-03-23T15:21:34;13.20;48.30
68011;DHT22;54794;48.348;7.878;2024-03-23T15:24:00;13.10;49.20
68011;DHT22;54794;48.348;7.878;2024-03-23T15:26:26;13.00;49.10
68011;DHT22;54794;48.348;7.878;2024-03-23T15:28:52;12.50;49.00
68011;DHT22;54794;48.348;7.878;2024-03-23T15:31:20;12.80;49.10
68011;DHT22;54794;48.348;7.878;2024-03-23T15:33:46;12.70;49.60
68011;DHT22;54794;48.348;7.878;2024-03-23T15:36:12;13.10;49.60
68011;DHT22;54794;48.348;7.878;2024-03-23T15:38:38;12.70;49.50
68011;DHT22;54794;48.348;7.878;2024-03-23T15:41:04;12.60;49.60
68011;DHT22;54794;48.348;7.878;2024-03-23T15:43:30;12.70;49.80
68011;DHT22;54794;48.348;7.878;2024-03-23T15:45:57;12.50;49.80
68011;DHT22;54794;48.348;7.878;2024-03-23T15:48:27;12.80;50.30
68011;DHT22;54794;48.348;7.878;2024-03-23T15:50:53;12.60;50.80
68011;DHT22;54794;48.348;7.878;2024-03-23T15:53:20;12.70;51.80
68011;DHT22;54794;48.348;7.878;2024-03-23T15:58:22;13.10;51.60
68011;DHT22;54794;48.348;7.878;2024-03-23T16:00:55;13.30;51.30
68011;DHT22;54794;48.348;7.878;2024-03-23T16:03:25;13.30;50.60
68011;DHT22;54794;48.348;7.878;2024-03-23T16:05:54;13.40;49.80
68011;DHT22;54794;48.348;7.878;2024-03-23T16:08:24;13.40;49.60
68011;DHT22;54794;48.348;7.878;2024-03-23T16:10:50;13.40;49.60
68011;DHT22;54794;48.348;7.878;2024-03-23T16:13:17;14.00;49.40
68011;DHT22;54794;48.348;7.878;2024-03-23T16:15:46;13.30;48.90
68011;DHT22;54794;48.348;7.878;2024-03-23T16:18:20;13.20;49.10
68011;DHT22;54794;48.348;7.878;2024-03-23T16:20:58;13.30;48.90
68011;DHT22;54794;48.348;7.878;2024-03-23T16:23:26;13.10;49.00
68011;DHT22;54794;48.348;7.878;2024-03-23T16:25:53;13.00;48.90
68011;DHT22;54794;48.348;7.878;2024-03-23T16:28:23;13.20;49.10
68011;DHT22;54794;48.348;7.878;2024-03-23T16:33:22;12.60;48.90
68011;DHT22;54794;48.348;7.878;2024-03-23T16:36:22;12.50;49.00
68011;DHT22;54794;48.348;7.878;2024-03-23T16:38:42;12.40;49.00
68011;DHT22;54794;48.348;7.878;2024-03-23T16:41:12;12.30;49.70